KMTH

The Florida Keys Marathon International Airport

Marathon, Florida, USA
METAR KMTH 100653Z AUTO 27009KT 10SM BKN075 OVC090 23/21 A2998 RMK AO2 SLP152 T02330206
Observed Flight Rules
Dec-10 @ 06:53 UTC (51 minutes ago) Visual Flight Rules
Wind Visibility Clouds
270° at 9 knots 10 miles
  • Broken at 7,500' AGL
  • Overcast at 9,000' AGL
Temperatures Readings
Current 23°C / 73°F
Dewpoint 21°C / 70°F
Humidity 89%
Altimeter 29.98" Hg
Pressure 1015.2 hPa
Elevation 2
METAR KMTH 100653Z AUTO 27009KT 10SM BKN075 OVC090 23/21 A2998 RMK AO2 SLP152 T02330206
Observed Flight Rules
Dec-10 @ 06:53 UTC
(51 minutes ago)
VFR
Wind Visibility
270° at 9 knots 10 miles
Clouds
  • Broken at 7,500' AGL
  • Overcast at 9,000' AGL
Temperature Dewpoint
23°C / 73°F 21°C / 70°F
Humidity Altimeter Pressure
89% 29.98" Hg 1015.2 hPa